NCAR-RAP Real-Time Weather Data

Output produced by METARs form (12 August 2020  18:34 UTC)
found at http://weather.rap.ucar.edu/surface/
 
KMSN 121753Z 19007G16KT 10SM FEW250 27/14 A3012 RMK AO2 SLP194 T02670139 10267 20167 53003
KMSN 121653Z 16008KT 10SM FEW250 26/14 A3012 RMK AO2 SLP194 T02610144
KMSN 121553Z 17007KT 10SM FEW250 25/14 A3010 RMK AO2 SLP190 T02500144
KMSN 121453Z 00000KT 10SM CLR 24/14 A3011 RMK AO2 SLP191 T02440144 58004
KMSN 121353Z 00000KT 10SM CLR 22/16 A3011 RMK AO2 SLP195 T02220161
KMSN 121253Z 00000KT 10SM CLR 19/16 A3012 RMK AO2 SLP195 T01940161
KMSN 121153Z 16003KT 10SM FEW100 17/16 A3012 RMK AO2 SLP195 T01670156 10167 20128 52013
KMSN 121053Z 00000KT 10SM FEW130 13/13 A3011 RMK AO2 SLP192 T01330133
KMSN 120953Z AUTO 00000KT 8SM CLR 13/13 A3009 RMK AO2 SLP187 T01280128 TSNO
KMSN 120853Z AUTO 00000KT 6SM BR CLR 14/14 A3008 RMK AO2 SLP182 T01390139 52013
KMSN 120753Z AUTO 00000KT 10SM CLR 14/14 A3007 RMK AO2 SLP177 T01440139
KMSN 120653Z AUTO 00000KT 10SM CLR 14/14 A3005 RMK AO2 SLP174 T01440144
KMSN 120553Z AUTO 00000KT 10SM CLR 15/15 A3004 RMK AO2 SLP170 T01500150 10261 20150 402780128 53004
KMSN 120453Z AUTO 00000KT 10SM CLR 16/15 A3004 RMK AO2 SLP168 T01560150
KMSN 120353Z 00000KT 10SM CLR 17/15 A3003 RMK AO2 SLP166 LAST T01670150
KMSN 120253Z 00000KT 10SM CLR 17/16 A3003 RMK AO2 SLP166 T01720156 53008
KMSN 120153Z 00000KT 10SM SCT250 19/16 A3002 RMK AO2 SLP161 T01890161
KMSN 120053Z 00000KT 10SM SCT250 21/16 A3001 RMK AO2 SLP160 T02110161
KMSN 112353Z 00000KT 10SM SCT250 26/13 A3001 RMK AO2 SLP158 T02610128 10278 20261 58002
KMSN 112253Z 00000KT 10SM SCT250 27/13 A3001 RMK AO2 SLP160 T02670128
KMSN 112153Z 00000KT 10SM SCT250 27/12 A3001 RMK AO2 SLP159 T02720117
KMSN 112053Z 01005KT 10SM FEW250 28/13 A3001 RMK AO2 SLP158 T02780128 56003
KMSN 111953Z VRB06KT 10SM FEW250 27/12 A3002 RMK AO2 SLP160 T02720117
KMSN 111853Z VRB04KT 10SM FEW250 27/11 A3002 RMK AO2 SLP160 T02670111
KMSN 111753Z VRB04KT 10SM FEW250 26/10 A3002 RMK AO2 SLP161 T02610100 10261 20139 50001
KMSN 111653Z 03003KT 10SM FEW050 FEW250 26/13 A3002 RMK AO2 SLP162 T02560128
KMSN 111553Z 00000KT 10SM FEW250 24/14 A3002 RMK AO2 SLP163 T02390144
KMSN 111453Z 35003KT 10SM FEW250 23/16 A3002 RMK AO2 SLP160 T02280156 51013
KMSN 111353Z 00000KT 10SM CLR 20/16 A3001 RMK AO2 SLP160 T02000156
KMSN 111253Z 30003KT 10SM CLR 18/15 A3000 RMK AO2 SLP156 T01780150
KMSN 111153Z 00000KT 10SM CLR 14/14 A2998 RMK AO2 SLP149 70011 T01390139 10183 20128 53011
KMSN 111053Z 00000KT 4SM BR CLR 13/13 A2997 RMK AO2 SLP146 VIS NE 1 T01330133
KMSN 111031Z AUTO 00000KT 3SM BR CLR 14/14 A2996 RMK AO2 T01390139
KMSN 111016Z AUTO 00000KT 1 3/4SM BR FEW002 14/14 A2996 RMK AO2 VIS 1/2V5 T01390139
KMSN 110953Z AUTO 00000KT 5SM BR CLR 14/14 A2995 RMK AO2 SLP139 T01440144
KMSN 110918Z AUTO 00000KT 1 3/4SM BR CLR 14/14 A2995 RMK AO2 VIS 1/2V5 T01440144
KMSN 110902Z AUTO 00000KT 3SM BR CLR 14/14 A2995 RMK AO2 T01440144
KMSN 110853Z AUTO 00000KT 1 1/4SM BR CLR 14/14 A2995 RMK AO2 VIS 1/2V5 SLP138 T01440144 53009
KMSN 110849Z AUTO 00000KT 1 3/4SM BR CLR 15/15 A2994 RMK AO2
KMSN 110753Z AUTO 00000KT 6SM BR CLR 16/16 A2993 RMK AO2 SLP132 T01610161
KMSN 110749Z AUTO 00000KT 3SM BR CLR 16/16 A2993 RMK AO2
KMSN 110739Z AUTO 00000KT 1 1/2SM BR CLR 16/16 A2993 RMK AO2 VIS 1/2V5 T01610161
KMSN 110653Z AUTO 35003KT 8SM CLR 17/17 A2992 RMK AO2 SLP128 T01670167
KMSN 110553Z AUTO 00000KT 10SM CLR 18/18 A2992 RMK AO2 SLP126 T01830178 10222 20183 402890183 50011
KMSN 110453Z AUTO 00000KT 10SM BKN042 19/18 A2992 RMK AO2 SLP127 T01940183
KMSN 110353Z VRB03KT 10SM CLR 20/19 A2990 RMK AO2 SLP119 LAST T02000194
KMSN 110253Z 29006KT 9SM FEW250 21/20 A2989 RMK AO2 SLP115 T02060200 51011
KMSN 110153Z 28005KT 10SM SCT250 21/21 A2988 RMK AO2 SLP114 T02110206
KMSN 110053Z 30006KT 10SM FEW016 BKN250 22/21 A2987 RMK AO2 SLP108 T02170211
KMSN 110019Z 32005KT 10SM SCT016 OVC250 22/21 A2985 RMK AO2 T02220211
KMSN 110008Z 32005KT 10SM BKN016 BKN020 OVC250 22/21 A2986 RMK AO2 T02220211
KMSN 102353Z 30004KT 10SM OVC014 22/21 A2985 RMK AO2 SLP103 60011 T02220211 10289 20217 55016
KMSN 102329Z 32005KT 10SM FEW008 BKN012 OVC250 22/22 A2983 RMK AO2 T02220217
KMSN 102305Z 29005KT 10SM SCT010 BKN030 OVC250 23/22 A2980 RMK AO2 T02280217
KMSN 102253Z 33005KT 10SM FEW008 BKN012 BKN033 OVC250 23/22 A2979 RMK AO2 RAE32 SLP082 P0001 T02280217
KMSN 102249Z 35004KT 10SM FEW008 BKN012 BKN035 OVC250 23/22 A2978 RMK AO2 RAE32 P0001
KMSN 102153Z 00000KT 5SM -RA BR SCT013 SCT100 OVC120 22/21 A2984 RMK AO2 RAE05B22 TSE06 PRESFR SLP099 P0003 T02220211
KMSN 102134Z VRB05KT 6SM -RA BR BKN013 OVC110 22/21 A2988 RMK AO2 LTG DSNT E AND S RAE05B22 TSE06 P0001 T02220211
KMSN 102111Z 00000KT 10SM SCT100 OVC120 23/21 A2990 RMK AO2 LTG DSNT NE-SE RAE05 TSE06 P0000 T02280211
KMSN 102053Z VRB06G17KT 6SM -TSRA BR FEW020 BKN095CB OVC120 23/21 A2990 RMK AO2 PK WND 30032/2032 LTG DSNT ALQDS SLP120 FRQ LTGICCC OHD TS OHD MOV E P0007 60007 T02280211 53015
KMSN 101953Z 31006KT 8SM -TSRA FEW045CB OVC110 26/24 A2987 RMK AO2 LTG DSNT SE-W RAE06B46 TSB13 SLP108 OCNL LTGCC OHD TS OHD MOV E P0000 T02560239
KMSN 101914Z 00000KT 10SM TS FEW044CB BKN070 BKN085 26/24 A2983 RMK AO2 LTG DSNT S-W RAE06 TSB13 OCNL LTGCC OHD TS OHD MOV E P0000 T02610239
KMSN 101853Z 00000KT 10SM -RA FEW025 BKN037 OVC065 27/23 A2982 RMK AO2 LTG DSNT ALQDS RAB43 PRESFR SLP093 P0000 T02670233